createdAt,value
2019-02-17T00:00:52.097Z,0.60
2019-02-17T00:03:19.669Z,0.70
2019-02-17T00:05:47.200Z,0.60
2019-02-17T00:08:14.935Z,0.70
2019-02-17T00:10:42.527Z,0.70
2019-02-17T00:13:10.039Z,0.70
2019-02-17T00:15:37.535Z,0.70
2019-02-17T00:18:05.152Z,0.80
2019-02-17T00:20:32.649Z,0.90
2019-02-17T00:23:00.197Z,1.00
2019-02-17T00:25:27.803Z,0.90
2019-02-17T00:27:55.301Z,0.90
2019-02-17T00:30:22.815Z,1.00
2019-02-17T00:32:50.351Z,1.00
2019-02-17T00:35:17.905Z,1.10
2019-02-17T00:37:45.421Z,1.30
2019-02-17T00:40:13.029Z,1.40
2019-02-17T00:42:40.543Z,1.60
2019-02-17T00:45:08.168Z,1.80
2019-02-17T00:47:35.723Z,2.00
2019-02-17T00:50:04.063Z,2.20
2019-02-17T00:52:31.632Z,2.40
2019-02-17T00:54:59.227Z,2.60
2019-02-17T00:57:26.739Z,2.80
2019-02-17T00:59:54.241Z,3.00
2019-02-17T01:02:21.886Z,3.10
2019-02-17T01:04:49.425Z,3.30
2019-02-17T01:07:16.939Z,3.40
2019-02-17T01:09:44.822Z,3.50
2019-02-17T01:12:12.374Z,3.60
2019-02-17T01:14:40.244Z,3.70
2019-02-17T01:17:07.769Z,3.70
2019-02-17T01:19:35.300Z,3.80
2019-02-17T01:22:02.904Z,3.90
2019-02-17T01:24:30.418Z,3.90
2019-02-17T01:26:57.950Z,4.00
2019-02-17T01:29:25.504Z,4.10
2019-02-17T01:31:53.041Z,4.10
2019-02-17T01:34:20.610Z,4.10
2019-02-17T01:36:48.097Z,4.20
2019-02-17T01:39:15.614Z,4.20
2019-02-17T01:41:43.315Z,4.20
2019-02-17T01:44:10.839Z,4.20
2019-02-17T01:46:38.639Z,4.20
2019-02-17T01:49:06.235Z,4.20
2019-02-17T01:51:33.759Z,4.10
2019-02-17T01:54:01.250Z,4.10
2019-02-17T01:56:28.838Z,4.10
2019-02-17T01:58:56.264Z,4.20
2019-02-17T02:01:23.780Z,4.20
2019-02-17T02:03:51.308Z,4.10
2019-02-17T02:06:18.884Z,4.00
2019-02-17T02:08:46.378Z,4.00
2019-02-17T02:11:13.894Z,3.90
2019-02-17T02:13:41.454Z,3.80
2019-02-17T02:16:08.974Z,3.70
2019-02-17T02:18:36.483Z,3.70
2019-02-17T02:21:04.005Z,3.80
2019-02-17T02:23:31.495Z,3.70
2019-02-17T02:25:59.013Z,3.70
2019-02-17T02:28:26.582Z,3.70
2019-02-17T02:30:54.086Z,3.60
2019-02-17T02:33:21.628Z,3.60
2019-02-17T02:35:49.184Z,3.50
2019-02-17T02:38:16.673Z,3.60
2019-02-17T02:40:44.202Z,3.50
2019-02-17T02:43:11.741Z,3.60
2019-02-17T02:45:39.274Z,3.60
2019-02-17T02:48:06.868Z,3.50
2019-02-17T02:50:34.406Z,3.50
2019-02-17T02:53:01.922Z,3.50
2019-02-17T02:55:29.433Z,3.40
2019-02-17T02:57:56.971Z,3.40
2019-02-17T03:00:24.490Z,3.40
2019-02-17T03:02:51.991Z,3.50
2019-02-17T03:05:19.547Z,3.40
2019-02-17T03:07:47.040Z,3.40
2019-02-17T03:10:14.536Z,3.40
2019-02-17T03:12:42.071Z,3.40
2019-02-17T03:15:09.588Z,3.30
2019-02-17T03:17:37.105Z,3.30
2019-02-17T03:20:05.003Z,3.20
2019-02-17T03:22:32.567Z,3.20
2019-02-17T03:25:00.234Z,3.00
2019-02-17T03:27:28.027Z,2.90
2019-02-17T03:30:04.326Z,2.50
2019-02-17T03:32:24.872Z,2.80
2019-02-17T03:34:52.467Z,2.80
2019-02-17T03:37:20.067Z,2.80
2019-02-17T03:39:47.574Z,2.70
2019-02-17T03:42:15.077Z,2.60
2019-02-17T03:44:42.575Z,2.60
2019-02-17T03:47:10.069Z,2.50
2019-02-17T03:49:37.587Z,2.50
2019-02-17T03:52:05.110Z,2.50
2019-02-17T03:54:32.719Z,2.50
2019-02-17T03:57:00.243Z,2.40
2019-02-17T03:59:27.885Z,2.40
2019-02-17T04:01:55.465Z,2.40
2019-02-17T04:04:23.023Z,2.50
2019-02-17T04:06:50.609Z,2.30
2019-02-17T04:09:18.177Z,2.20
2019-02-17T04:11:45.663Z,2.20
2019-02-17T04:14:13.185Z,2.20
2019-02-17T04:16:40.763Z,2.10
2019-02-17T04:19:08.313Z,2.00
2019-02-17T04:21:35.907Z,1.90
2019-02-17T04:24:03.431Z,1.80
2019-02-17T04:26:30.945Z,1.80
2019-02-17T04:28:58.514Z,1.70
2019-02-17T04:31:26.006Z,1.60
2019-02-17T04:33:53.507Z,1.70
2019-02-17T04:36:21.063Z,1.50
2019-02-17T04:38:48.601Z,1.40
2019-02-17T04:41:16.113Z,1.30
2019-02-17T04:43:43.641Z,1.40
2019-02-17T04:46:11.177Z,1.40
2019-02-17T04:48:38.773Z,1.40
2019-02-17T04:51:06.294Z,1.40
2019-02-17T04:53:33.857Z,1.30
2019-02-17T04:56:01.348Z,1.30
2019-02-17T04:58:28.856Z,1.30
2019-02-17T05:00:56.396Z,1.40
2019-02-17T05:03:23.924Z,1.40
2019-02-17T05:05:51.425Z,1.50
2019-02-17T05:08:18.983Z,1.60
2019-02-17T05:10:46.484Z,1.60
2019-02-17T05:13:13.998Z,1.70
2019-02-17T05:15:41.513Z,1.70
2019-02-17T05:18:09.031Z,1.80
2019-02-17T05:20:36.543Z,1.70
2019-02-17T05:23:04.126Z,1.70
2019-02-17T05:25:31.669Z,1.80
2019-02-17T05:27:59.185Z,1.90
2019-02-17T05:30:26.718Z,1.90
2019-02-17T05:32:54.266Z,1.90
2019-02-17T05:35:21.766Z,2.00
2019-02-17T05:37:49.277Z,2.00
2019-02-17T05:40:16.795Z,2.00
2019-02-17T05:42:44.359Z,2.00
2019-02-17T05:45:11.876Z,2.00
2019-02-17T05:47:39.385Z,2.10
2019-02-17T05:50:07.043Z,2.10
2019-02-17T05:52:34.565Z,2.10
2019-02-17T05:55:02.082Z,2.10
2019-02-17T05:57:29.764Z,2.20
2019-02-17T05:59:57.287Z,2.20
2019-02-17T06:02:24.801Z,2.40
2019-02-17T06:04:52.299Z,2.30
2019-02-17T06:07:19.862Z,2.30
2019-02-17T06:09:47.373Z,2.40
2019-02-17T06:12:14.912Z,2.40
2019-02-17T06:14:42.431Z,2.40
2019-02-17T06:17:10.024Z,2.50
2019-02-17T06:19:37.613Z,2.50
2019-02-17T06:22:05.126Z,2.60
2019-02-17T06:24:32.662Z,2.70
2019-02-17T06:27:00.189Z,2.70
2019-02-17T06:29:27.681Z,2.70
2019-02-17T06:31:55.261Z,2.70
2019-02-17T06:34:22.798Z,2.90
2019-02-17T06:36:50.294Z,2.90
2019-02-17T06:39:17.817Z,2.90
2019-02-17T06:41:45.359Z,2.90
2019-02-17T06:44:12.883Z,3.10
2019-02-17T06:46:45.032Z,3.20
2019-02-17T06:49:12.534Z,3.30
2019-02-17T06:51:40.052Z,3.70
2019-02-17T06:54:07.627Z,4.10
2019-02-17T06:56:48.814Z,4.40
2019-02-17T06:59:16.357Z,4.50
2019-02-17T07:01:43.902Z,4.50
2019-02-17T07:04:11.422Z,4.90
2019-02-17T07:06:42.418Z,5.30
2019-02-17T07:09:10.004Z,5.50
2019-02-17T07:11:37.534Z,5.50
2019-02-17T07:14:05.040Z,5.30
2019-02-17T07:16:32.600Z,5.30
2019-02-17T07:19:00.147Z,5.10
2019-02-17T07:21:27.660Z,5.00
2019-02-17T07:23:55.196Z,5.00
2019-02-17T07:26:22.742Z,5.00
2019-02-17T07:28:50.275Z,4.90
2019-02-17T07:31:17.791Z,5.00
2019-02-17T07:33:45.305Z,5.10
2019-02-17T07:36:12.854Z,5.20
2019-02-17T07:38:40.356Z,5.40
2019-02-17T07:41:07.949Z,5.50
2019-02-17T07:43:35.502Z,5.60
2019-02-17T07:46:03.044Z,5.60
2019-02-17T07:48:30.564Z,5.80
2019-02-17T07:50:58.151Z,5.70
2019-02-17T07:53:25.659Z,5.80
2019-02-17T07:55:53.165Z,5.80
2019-02-17T07:58:20.736Z,5.80
2019-02-17T08:00:48.228Z,5.90
2019-02-17T08:03:15.749Z,6.20
2019-02-17T08:05:43.262Z,6.50
2019-02-17T08:08:10.832Z,7.00
2019-02-17T08:10:38.349Z,7.60
2019-02-17T08:13:05.858Z,7.90
2019-02-17T08:15:33.381Z,8.10
2019-02-17T08:18:02.034Z,8.30
2019-02-17T08:20:29.588Z,8.70
2019-02-17T08:22:57.136Z,9.00
2019-02-17T08:25:25.235Z,9.50
2019-02-17T08:27:52.804Z,9.80
2019-02-17T08:30:20.496Z,10.30
2019-02-17T08:32:47.996Z,10.20
2019-02-17T08:35:15.625Z,10.10
2019-02-17T08:37:43.187Z,10.50
2019-02-17T08:40:10.693Z,10.60
2019-02-17T08:42:38.290Z,10.60
2019-02-17T08:45:05.967Z,10.20
2019-02-17T08:47:33.754Z,9.70
2019-02-17T08:50:01.472Z,9.30
2019-02-17T08:52:29.044Z,9.00
2019-02-17T08:54:56.558Z,8.90
2019-02-17T08:57:24.064Z,8.70
2019-02-17T08:59:51.642Z,8.70
2019-02-17T09:02:19.122Z,8.70
2019-02-17T09:04:46.651Z,8.80
2019-02-17T09:07:14.228Z,8.80
2019-02-17T09:09:41.774Z,8.90
2019-02-17T09:12:09.280Z,8.90
2019-02-17T09:14:36.800Z,9.00
2019-02-17T09:17:04.344Z,9.10
2019-02-17T09:19:31.865Z,9.10
2019-02-17T09:21:59.418Z,9.20
2019-02-17T09:24:26.960Z,9.30
2019-02-17T09:26:54.534Z,9.50
2019-02-17T09:29:22.111Z,9.60
2019-02-17T09:31:49.596Z,9.60
2019-02-17T09:34:17.166Z,9.60
2019-02-17T09:36:44.798Z,9.60
2019-02-17T09:39:12.346Z,9.70
2019-02-17T09:41:39.896Z,9.70
2019-02-17T09:44:07.468Z,9.70
2019-02-17T09:46:35.005Z,9.90
2019-02-17T09:49:02.538Z,10.10
2019-02-17T09:51:30.057Z,10.20
2019-02-17T09:53:57.556Z,10.30
2019-02-17T09:56:26.063Z,10.30
2019-02-17T09:58:53.671Z,10.20
2019-02-17T10:01:21.258Z,10.20
2019-02-17T10:03:48.750Z,10.20
2019-02-17T10:06:16.291Z,10.20
2019-02-17T10:08:43.792Z,10.20
2019-02-17T10:11:11.310Z,10.30
2019-02-17T10:13:38.854Z,10.30
2019-02-17T10:16:06.384Z,10.40
2019-02-17T10:18:33.885Z,10.40
2019-02-17T10:21:01.427Z,10.40
2019-02-17T10:23:28.966Z,10.30
2019-02-17T10:25:56.677Z,10.30
2019-02-17T10:28:24.331Z,10.30
2019-02-17T10:30:51.924Z,10.30
2019-02-17T10:33:19.390Z,10.40
2019-02-17T10:35:46.920Z,10.40
2019-02-17T10:38:14.463Z,10.40
2019-02-17T10:40:41.962Z,10.50
2019-02-17T10:43:09.492Z,10.50
2019-02-17T10:45:37.034Z,10.60
2019-02-17T10:48:04.554Z,10.50
2019-02-17T10:50:32.071Z,10.40
2019-02-17T10:52:59.614Z,10.40
2019-02-17T10:55:27.156Z,10.40
2019-02-17T10:57:54.660Z,10.40
2019-02-17T11:00:22.303Z,10.30
2019-02-17T11:02:49.824Z,10.20
2019-02-17T11:05:17.337Z,10.20
2019-02-17T11:07:44.905Z,10.10
2019-02-17T11:10:12.748Z,10.10
2019-02-17T11:12:40.314Z,10.20
2019-02-17T11:15:10.000Z,10.10
2019-02-17T11:17:37.600Z,10.10
2019-02-17T11:20:05.237Z,10.30
2019-02-17T11:22:32.731Z,10.20
2019-02-17T11:25:00.355Z,10.20
2019-02-17T11:27:27.914Z,10.30
2019-02-17T11:29:55.438Z,10.20
2019-02-17T11:32:22.987Z,10.30
2019-02-17T11:34:50.576Z,10.40
2019-02-17T11:37:18.100Z,10.40
2019-02-17T11:39:45.648Z,10.40
2019-02-17T11:42:13.237Z,10.40
2019-02-17T11:44:40.777Z,10.40
2019-02-17T11:47:08.299Z,10.50
2019-02-17T11:49:36.058Z,10.50
2019-02-17T11:52:03.607Z,10.50
2019-02-17T11:54:32.781Z,10.60
2019-02-17T11:57:00.298Z,10.70
2019-02-17T11:59:27.839Z,10.80
2019-02-17T12:01:55.354Z,10.80
2019-02-17T12:04:22.890Z,10.70
2019-02-17T12:06:50.730Z,10.80
2019-02-17T12:09:18.986Z,10.80
2019-02-17T12:11:46.542Z,10.70
2019-02-17T12:14:14.770Z,10.80
2019-02-17T12:16:42.332Z,10.80
2019-02-17T12:19:09.930Z,10.70
2019-02-17T12:21:42.274Z,10.80
2019-02-17T12:24:22.400Z,10.80
2019-02-17T12:27:09.156Z,10.80
2019-02-17T12:29:39.876Z,10.80
2019-02-17T12:32:07.382Z,10.80
2019-02-17T12:34:34.917Z,10.90
2019-02-17T12:37:02.436Z,10.80
2019-02-17T12:39:29.987Z,10.80
2019-02-17T12:41:57.542Z,10.80
2019-02-17T12:44:25.055Z,10.90
2019-02-17T12:46:52.561Z,10.90
2019-02-17T12:49:20.134Z,10.90
2019-02-17T12:51:47.639Z,10.90
2019-02-17T12:54:15.155Z,10.80
2019-02-17T12:56:42.850Z,10.80
2019-02-17T12:59:10.366Z,10.80
2019-02-17T13:01:37.881Z,10.80
2019-02-17T13:04:05.424Z,10.80
2019-02-17T13:06:32.938Z,10.70
2019-02-17T13:09:00.470Z,10.70
2019-02-17T13:11:27.992Z,10.70
2019-02-17T13:13:55.558Z,10.70
2019-02-17T13:16:23.121Z,10.70
2019-02-17T13:18:50.649Z,10.70
2019-02-17T13:21:18.228Z,10.70
2019-02-17T13:23:45.804Z,10.70
2019-02-17T13:26:13.327Z,10.70
2019-02-17T13:28:40.915Z,10.70
2019-02-17T13:31:08.422Z,10.60
2019-02-17T13:33:39.315Z,10.70
2019-02-17T13:36:06.072Z,10.60
2019-02-17T13:38:33.631Z,10.60
2019-02-17T13:41:01.258Z,10.60
2019-02-17T13:43:30.666Z,10.60
2019-02-17T13:45:58.267Z,10.50
2019-02-17T13:48:25.825Z,10.50
2019-02-17T13:50:53.359Z,10.50
2019-02-17T13:53:20.890Z,10.50
2019-02-17T13:55:48.469Z,10.40
2019-02-17T13:58:16.004Z,10.30
2019-02-17T14:00:43.536Z,10.30
2019-02-17T14:03:11.136Z,10.30
2019-02-17T14:05:38.667Z,10.30
2019-02-17T14:08:09.853Z,10.30
2019-02-17T14:10:38.150Z,10.20
2019-02-17T14:13:05.646Z,10.20
2019-02-17T14:15:33.301Z,10.20
2019-02-17T14:18:00.904Z,10.20
2019-02-17T14:20:28.411Z,10.20
2019-02-17T14:22:55.951Z,10.20
2019-02-17T14:25:23.534Z,10.20
2019-02-17T14:27:51.075Z,10.20
2019-02-17T14:30:18.753Z,10.20
2019-02-17T14:32:46.335Z,10.20
2019-02-17T14:35:13.843Z,10.20
2019-02-17T14:37:41.491Z,10.10
2019-02-17T14:40:09.144Z,10.00
2019-02-17T14:42:36.681Z,10.10
2019-02-17T14:45:04.341Z,10.10
2019-02-17T14:47:34.862Z,10.00
2019-02-17T14:50:02.057Z,9.90
2019-02-17T14:52:29.673Z,10.00
2019-02-17T14:54:57.293Z,9.90
2019-02-17T14:57:25.006Z,9.90
2019-02-17T14:59:53.167Z,9.90
2019-02-17T15:02:21.209Z,9.80
2019-02-17T15:04:50.517Z,9.80
2019-02-17T15:07:18.256Z,9.80
2019-02-17T15:09:45.872Z,9.80
2019-02-17T15:12:13.443Z,9.70
2019-02-17T15:14:41.450Z,9.70
2019-02-17T15:17:09.060Z,9.70
2019-02-17T15:19:36.636Z,9.60
2019-02-17T15:22:04.214Z,9.60
2019-02-17T15:24:31.793Z,9.60
2019-02-17T15:26:59.489Z,9.60
2019-02-17T15:29:27.113Z,9.60
2019-02-17T15:31:54.674Z,9.50
2019-02-17T15:34:25.089Z,9.40
2019-02-17T15:36:53.169Z,9.40
2019-02-17T15:39:20.787Z,9.40
2019-02-17T15:41:48.534Z,9.30
2019-02-17T15:44:16.115Z,9.30
2019-02-17T15:46:43.681Z,9.30
2019-02-17T15:49:11.723Z,9.20
2019-02-17T15:51:39.609Z,9.20
2019-02-17T15:54:07.185Z,9.10
2019-02-17T15:56:35.939Z,9.10
2019-02-17T15:59:03.616Z,9.20
2019-02-17T16:01:31.161Z,9.20
2019-02-17T16:03:58.715Z,9.20
2019-02-17T16:06:26.377Z,9.10
2019-02-17T16:08:54.334Z,9.10
2019-02-17T16:11:22.038Z,9.10
2019-02-17T16:13:49.667Z,9.00
2019-02-17T16:16:17.260Z,9.00
2019-02-17T16:18:44.981Z,9.00
2019-02-17T16:21:12.613Z,9.00
2019-02-17T16:23:40.145Z,9.00
2019-02-17T16:26:07.748Z,9.00
2019-02-17T16:28:35.356Z,8.90
2019-02-17T16:31:02.960Z,8.90
2019-02-17T16:33:30.549Z,8.90
2019-02-17T16:35:58.164Z,8.80
2019-02-17T16:38:25.847Z,8.80
2019-02-17T16:40:53.477Z,8.80
2019-02-17T16:43:21.582Z,8.80
2019-02-17T16:45:49.240Z,8.80
2019-02-17T16:48:16.778Z,8.80
2019-02-17T16:50:44.691Z,8.80
2019-02-17T16:53:13.911Z,8.80
2019-02-17T16:55:41.555Z,8.70
2019-02-17T16:58:09.142Z,8.80
2019-02-17T17:00:36.889Z,8.80
2019-02-17T17:03:04.589Z,8.80
2019-02-17T17:05:32.179Z,8.80
2019-02-17T17:07:59.797Z,8.70
2019-02-17T17:10:27.384Z,8.70
2019-02-17T17:12:54.971Z,8.80
2019-02-17T17:15:22.602Z,8.70
2019-02-17T17:17:50.241Z,8.70
2019-02-17T17:20:17.812Z,8.70
2019-02-17T17:22:45.499Z,8.70
2019-02-17T17:25:13.331Z,8.70
2019-02-17T17:27:41.479Z,8.60
2019-02-17T17:30:11.700Z,8.70
2019-02-17T17:32:39.903Z,8.60
2019-02-17T17:35:08.457Z,8.80
2019-02-17T17:37:36.057Z,8.70
2019-02-17T17:40:04.261Z,8.70
2019-02-17T17:42:31.957Z,8.60
2019-02-17T17:44:59.575Z,8.60
2019-02-17T17:47:27.292Z,8.60
2019-02-17T17:49:54.896Z,8.60
2019-02-17T17:52:22.466Z,8.60
2019-02-17T17:54:50.083Z,8.60
2019-02-17T17:57:17.675Z,8.60
2019-02-17T17:59:45.267Z,8.50
2019-02-17T18:02:12.901Z,8.60
2019-02-17T18:04:43.586Z,8.60
2019-02-17T18:07:11.442Z,8.50
2019-02-17T18:09:39.011Z,8.50
2019-02-17T18:12:06.618Z,8.50
2019-02-17T18:14:34.141Z,8.50
2019-02-17T18:17:01.718Z,8.40
2019-02-17T18:19:29.922Z,8.40
2019-02-17T18:21:57.907Z,8.40
2019-02-17T18:24:26.786Z,8.40
2019-02-17T18:26:54.535Z,8.40
2019-02-17T18:29:22.123Z,8.40
2019-02-17T18:31:49.811Z,8.40
2019-02-17T18:34:17.379Z,8.30
2019-02-17T18:36:44.991Z,8.30
2019-02-17T18:39:12.609Z,8.30
2019-02-17T18:41:40.223Z,8.30
2019-02-17T18:44:07.817Z,8.30
2019-02-17T18:46:35.390Z,8.30
2019-02-17T18:49:03.015Z,8.30
2019-02-17T18:51:30.595Z,8.30
2019-02-17T18:53:58.223Z,8.30
2019-02-17T18:56:26.303Z,8.30
2019-02-17T18:58:53.793Z,8.30
2019-02-17T19:01:21.386Z,8.30
2019-02-17T19:03:48.979Z,8.30
2019-02-17T19:06:16.655Z,8.30
2019-02-17T19:08:44.163Z,8.20
2019-02-17T19:11:11.859Z,8.20
2019-02-17T19:13:39.460Z,8.20
2019-02-17T19:16:07.060Z,8.20
2019-02-17T19:18:34.631Z,8.20
2019-02-17T19:21:02.210Z,8.20
2019-02-17T19:23:30.189Z,8.20
2019-02-17T19:25:57.785Z,8.20
2019-02-17T19:28:25.721Z,8.20
2019-02-17T19:30:53.500Z,8.20
2019-02-17T19:33:21.065Z,8.20
2019-02-17T19:35:48.675Z,8.10
2019-02-17T19:38:16.259Z,8.20
2019-02-17T19:40:43.876Z,8.10
2019-02-17T19:43:11.433Z,8.10
2019-02-17T19:45:39.077Z,8.10
2019-02-17T19:48:08.116Z,8.10
2019-02-17T19:50:35.667Z,8.10
2019-02-17T19:53:03.272Z,8.10
2019-02-17T19:55:30.840Z,8.10
2019-02-17T19:57:58.468Z,8.10
2019-02-17T20:00:26.109Z,8.10
2019-02-17T20:03:02.755Z,8.10
2019-02-17T20:05:32.465Z,8.10
2019-02-17T20:07:59.993Z,8.10
2019-02-17T20:10:27.656Z,8.10
2019-02-17T20:12:55.211Z,8.10
2019-02-17T20:15:24.608Z,8.00
2019-02-17T20:17:52.325Z,8.00
2019-02-17T20:20:19.955Z,8.00
2019-02-17T20:22:47.487Z,8.00
2019-02-17T20:25:15.143Z,7.90
2019-02-17T20:27:42.743Z,7.90
2019-02-17T20:30:10.534Z,7.90
2019-02-17T20:32:38.066Z,7.90
2019-02-17T20:35:05.851Z,7.80
2019-02-17T20:37:33.477Z,7.90
2019-02-17T20:40:01.027Z,7.80
2019-02-17T20:42:28.618Z,7.80
2019-02-17T20:44:56.205Z,7.80
2019-02-17T20:47:23.779Z,7.80
2019-02-17T20:49:51.407Z,7.70
2019-02-17T20:52:18.947Z,7.70
2019-02-17T20:54:46.576Z,7.60
2019-02-17T20:57:14.142Z,7.60
2019-02-17T20:59:41.683Z,7.60
2019-02-17T21:02:09.257Z,7.60
2019-02-17T21:04:36.857Z,7.50
2019-02-17T21:07:04.445Z,7.50
2019-02-17T21:09:32.140Z,7.50
2019-02-17T21:11:59.699Z,7.50
2019-02-17T21:14:27.340Z,7.50
2019-02-17T21:16:54.947Z,7.50
2019-02-17T21:19:22.704Z,7.50
2019-02-17T21:21:50.257Z,7.50
2019-02-17T21:24:17.859Z,7.50
2019-02-17T21:26:45.415Z,7.50
2019-02-17T21:29:13.031Z,7.40
2019-02-17T21:31:40.618Z,7.40
2019-02-17T21:34:08.197Z,7.40
2019-02-17T21:36:35.795Z,7.40
2019-02-17T21:39:04.323Z,7.30
2019-02-17T21:41:31.906Z,7.30
2019-02-17T21:43:59.499Z,7.30
2019-02-17T21:46:27.040Z,7.30
2019-02-17T21:48:54.648Z,7.30
2019-02-17T21:51:22.249Z,7.30
2019-02-17T21:53:49.828Z,7.30
2019-02-17T21:56:17.339Z,7.20
2019-02-17T21:58:44.867Z,7.20
2019-02-17T22:01:12.443Z,7.20
2019-02-17T22:03:39.958Z,7.20
2019-02-17T22:06:07.503Z,7.20
2019-02-17T22:08:35.086Z,7.20
2019-02-17T22:11:02.606Z,7.20
2019-02-17T22:13:30.149Z,7.20
2019-02-17T22:15:57.698Z,7.10
2019-02-17T22:18:25.325Z,7.10
2019-02-17T22:20:52.897Z,7.10
2019-02-17T22:23:20.409Z,7.10
2019-02-17T22:25:48.024Z,7.10
2019-02-17T22:28:15.613Z,7.10
2019-02-17T22:30:43.147Z,7.10
2019-02-17T22:33:10.670Z,7.00
2019-02-17T22:35:38.264Z,7.00
2019-02-17T22:38:05.801Z,7.00
2019-02-17T22:40:33.304Z,7.00
2019-02-17T22:43:00.856Z,7.00
2019-02-17T22:45:28.402Z,6.90
2019-02-17T22:47:55.926Z,6.90
2019-02-17T22:50:23.502Z,6.90
2019-02-17T22:52:51.010Z,7.00
2019-02-17T22:55:18.595Z,7.00
2019-02-17T22:57:46.116Z,7.00
2019-02-17T23:00:29.218Z,6.90
2019-02-17T23:02:56.846Z,7.00
2019-02-17T23:05:24.371Z,7.00
2019-02-17T23:07:51.946Z,7.00
2019-02-17T23:10:19.480Z,7.00
2019-02-17T23:12:47.014Z,7.00
2019-02-17T23:15:14.653Z,7.00
2019-02-17T23:17:42.207Z,7.00
2019-02-17T23:20:09.754Z,7.00
2019-02-17T23:22:37.290Z,7.00
2019-02-17T23:25:05.444Z,7.00
2019-02-17T23:27:32.962Z,7.00
2019-02-17T23:30:00.497Z,7.00
2019-02-17T23:32:28.114Z,7.00
2019-02-17T23:34:55.704Z,7.00
2019-02-17T23:37:23.224Z,7.00
2019-02-17T23:39:50.836Z,7.00
2019-02-17T23:42:18.341Z,7.00
2019-02-17T23:44:45.854Z,7.00
2019-02-17T23:47:13.387Z,7.10
2019-02-17T23:49:40.888Z,7.10
2019-02-17T23:52:08.740Z,7.10
2019-02-17T23:54:36.278Z,7.00
2019-02-17T23:57:03.806Z,7.00
2019-02-17T23:59:31.378Z,7.00
